Time;durP1;ratioP1;P1;durP2;ratioP2;P2;SDS_P1;SDS_P2;PMS_P1;PMS_P2;Temp;Humidity;BMP_temperature;BMP_pressure;BME280_temperature;BME280_humidity;BME280_pressure;Samples;Min_cycle;Max_cycle;Signal;HPM_P1;HPM_P2
2022/09/29 00:00:27;;;;;;;10.82;5.85;;;5.80;99.90;;;;;;5033433;28;20035;-88
2022/09/29 00:02:53;;;;;;;8.23;5.57;;;5.80;99.90;;;;;;5013392;28;20022;-88
2022/09/29 00:05:19;;;;;;;8.70;5.43;;;5.80;99.90;;;;;;5013232;28;20033;-88
2022/09/29 00:07:44;;;;;;;13.68;5.63;;;5.80;99.90;;;;;;5012963;28;20030;-89
2022/09/29 00:10:10;;;;;;;8.05;5.72;;;5.80;99.90;;;;;;5011728;28;20120;-88
2022/09/29 00:12:35;;;;;;;8.73;6.53;;;5.80;99.90;;;;;;5010722;28;20052;-88
2022/09/29 00:15:01;;;;;;;10.50;6.93;;;5.80;99.90;;;;;;5008395;28;20041;-89
2022/09/29 00:17:27;;;;;;;9.95;7.05;;;5.90;99.90;;;;;;5010751;28;20113;-89
2022/09/29 00:19:53;;;;;;;9.23;6.25;;;5.90;99.90;;;;;;5010552;28;20030;-88
2022/09/29 00:22:18;;;;;;;12.27;7.65;;;6.00;99.90;;;;;;5012217;28;20033;-88
2022/09/29 00:24:46;;;;;;;11.07;7.30;;;6.00;99.90;;;;;;5011692;28;20018;-88
2022/09/29 00:27:14;;;;;;;10.68;7.07;;;6.00;99.90;;;;;;5019156;28;20439;-88
2022/09/29 00:29:39;;;;;;;11.20;7.60;;;6.00;99.90;;;;;;5008800;28;20029;-88
2022/09/29 00:32:05;;;;;;;12.90;8.02;;;6.00;99.90;;;;;;5011972;28;20029;-88
2022/09/29 00:34:30;;;;;;;10.63;7.32;;;6.10;99.90;;;;;;5018284;28;20053;-88
2022/09/29 00:36:56;;;;;;;11.88;8.38;;;6.10;99.90;;;;;;5010903;28;20038;-88
2022/09/29 00:39:22;;;;;;;12.93;8.65;;;6.10;99.90;;;;;;5010908;28;21354;-88
2022/09/29 00:41:47;;;;;;;14.20;9.10;;;6.10;99.90;;;;;;5012172;28;20509;-88
2022/09/29 00:44:12;;;;;;;12.13;8.40;;;6.10;99.90;;;;;;5027573;28;20030;-89
2022/09/29 00:47:01;;;;;;;11.35;8.25;;;6.10;99.90;;;;;;5019880;28;20136;-88
2022/09/29 00:49:38;;;;;;;12.68;9.05;;;6.10;99.90;;;;;;5011537;28;20561;-89
2022/09/29 00:52:06;;;;;;;12.85;9.13;;;6.10;99.90;;;;;;5011451;28;20486;-88
2022/09/29 00:54:42;;;;;;;14.52;8.70;;;6.10;99.90;;;;;;5011120;28;20030;-88
2022/09/29 00:57:10;;;;;;;14.15;8.65;;;6.10;99.90;;;;;;5011562;28;20038;-88
2022/09/29 00:59:45;;;;;;;15.75;9.73;;;6.10;99.90;;;;;;5011543;28;20112;-88
2022/09/29 01:02:11;;;;;;;18.92;9.60;;;6.10;99.90;;;;;;5011306;28;20057;-89
2022/09/29 01:04:37;;;;;;;15.40;10.40;;;6.00;99.90;;;;;;5012826;28;20092;-88
2022/09/29 01:07:03;;;;;;;15.65;9.85;;;6.10;99.90;;;;;;5012038;28;20116;-88
2022/09/29 01:09:32;;;;;;;14.10;9.40;;;6.00;99.90;;;;;;5016392;28;20073;-88
2022/09/29 01:11:58;;;;;;;11.63;8.55;;;6.00;99.90;;;;;;5013533;28;20052;-88
2022/09/29 01:14:26;;;;;;;15.30;9.02;;;6.00;99.90;;;;;;5011601;28;20037;-88
2022/09/29 01:16:52;;;;;;;12.25;8.70;;;6.00;99.90;;;;;;5008888;28;20034;-88
2022/09/29 01:19:46;;;;;;;14.98;9.15;;;6.00;99.90;;;;;;4994094;28;20110;-88
2022/09/29 01:22:46;;;;;;;10.70;8.55;;;6.00;99.90;;;;;;5008973;28;20034;-88
2022/09/29 01:25:58;;;;;;;14.45;8.57;;;5.90;99.90;;;;;;5027768;28;20474;-88
2022/09/29 01:28:45;;;;;;;8.27;6.15;;;5.80;99.90;;;;;;5010567;28;20038;-88
2022/09/29 01:31:22;;;;;;;9.70;5.75;;;5.80;99.90;;;;;;5010564;28;20034;-87
2022/09/29 01:34:24;;;;;;;13.13;6.57;;;5.70;99.90;;;;;;5013196;28;20053;-89
2022/09/29 01:37:13;;;;;;;8.65;6.10;;;5.70;99.90;;;;;;5028837;28;20026;-88
2022/09/29 01:39:41;;;;;;;11.40;7.35;;;5.70;99.90;;;;;;5014748;28;20025;-89
2022/09/29 01:42:16;;;;;;;13.57;8.80;;;5.70;99.90;;;;;;5016383;28;20049;-89
2022/09/29 01:44:51;;;;;;;11.48;8.82;;;5.60;99.90;;;;;;5018952;28;20073;-89
2022/09/29 01:47:28;;;;;;;9.57;6.68;;;5.60;99.90;;;;;;5014475;28;20026;-88
2022/09/29 01:50:09;;;;;;;13.25;5.95;;;5.60;99.90;;;;;;5014201;28;20033;-88
2022/09/29 01:52:42;;;;;;;32.35;7.28;;;5.60;99.90;;;;;;5014823;28;20018;-88
2022/09/29 01:55:12;;;;;;;22.90;6.40;;;5.50;99.90;;;;;;5013734;28;20029;-87
2022/09/29 01:58:13;;;;;;;8.90;5.75;;;5.50;99.90;;;;;;5011247;28;20017;-88
2022/09/29 02:00:46;;;;;;;11.38;6.35;;;5.40;99.90;;;;;;4989956;28;20046;-88
2022/09/29 02:03:34;;;;;;;12.02;7.63;;;5.40;99.90;;;;;;5012078;28;20026;-88
2022/09/29 02:06:11;;;;;;;10.98;7.15;;;5.40;99.90;;;;;;5012562;28;20026;-88
2022/09/29 02:08:46;;;;;;;14.73;8.85;;;5.40;99.90;;;;;;5012243;28;20022;-89
2022/09/29 02:11:12;;;;;;;13.85;8.63;;;5.30;99.90;;;;;;5009579;28;20025;-89
2022/09/29 02:13:57;;;;;;;16.70;10.38;;;5.30;99.90;;;;;;5015431;28;20115;-88
2022/09/29 02:16:31;;;;;;;13.52;8.82;;;5.30;99.90;;;;;;5011198;28;20018;-88
2022/09/29 02:19:06;;;;;;;16.73;8.27;;;5.30;99.90;;;;;;5012827;28;20029;-89
2022/09/29 02:21:32;;;;;;;14.68;8.15;;;5.20;99.90;;;;;;5015592;28;20112;-88
2022/09/29 02:23:58;;;;;;;11.15;7.78;;;5.20;99.90;;;;;;5014117;28;20033;-88
2022/09/29 02:26:28;;;;;;;23.10;6.28;;;5.20;99.90;;;;;;5015198;28;20030;-88
2022/09/29 02:28:54;;;;;;;17.85;6.82;;;5.10;99.90;;;;;;5016239;28;20520;-89
2022/09/29 02:31:20;;;;;;;40.40;5.25;;;5.00;99.90;;;;;;5014043;28;20033;-88
2022/09/29 02:33:46;;;;;;;11.73;7.07;;;5.00;99.90;;;;;;5030153;28;20034;-88
2022/09/29 02:36:39;;;;;;;8.45;6.43;;;4.90;99.90;;;;;;5036234;28;20037;-88
2022/09/29 02:39:30;;;;;;;12.15;7.93;;;5.00;99.90;;;;;;5013050;28;20371;-89
2022/09/29 02:42:16;;;;;;;13.10;9.52;;;5.00;99.90;;;;;;4995359;28;20034;-88
2022/09/29 02:45:02;;;;;;;15.30;10.10;;;5.00;99.90;;;;;;5026949;28;20030;-87
2022/09/29 02:47:50;;;;;;;14.43;9.57;;;5.00;99.90;;;;;;5000756;28;20027;-88
2022/09/29 02:51:00;;;;;;;15.63;9.40;;;5.10;99.90;;;;;;5015379;28;20030;-88
2022/09/29 02:53:55;;;;;;;16.77;11.02;;;5.10;99.90;;;;;;5023675;28;20159;-88
2022/09/29 02:56:36;;;;;;;21.05;11.38;;;5.10;99.90;;;;;;5027038;28;20041;-88
2022/09/29 02:59:27;;;;;;;18.33;11.13;;;5.10;99.90;;;;;;5012617;28;20038;-88
2022/09/29 03:01:55;;;;;;;17.42;11.23;;;5.20;99.90;;;;;;4987152;28;20042;-88
2022/09/29 03:04:26;;;;;;;19.90;11.95;;;5.20;99.90;;;;;;5014821;28;20025;-88
2022/09/29 03:06:52;;;;;;;19.10;12.20;;;5.20;99.90;;;;;;5005970;28;20022;-88
2022/09/29 03:09:18;;;;;;;17.20;11.05;;;5.20;99.90;;;;;;5013029;28;20030;-88
2022/09/29 03:11:43;;;;;;;15.93;11.52;;;5.20;99.90;;;;;;5013188;28;20053;-89
2022/09/29 03:14:09;;;;;;;39.10;13.07;;;5.20;99.90;;;;;;5014034;28;20042;-88
2022/09/29 03:16:36;;;;;;;38.92;13.00;;;5.20;99.90;;;;;;5005838;28;20034;-88
2022/09/29 03:19:04;;;;;;;59.72;13.27;;;5.20;99.90;;;;;;5008557;28;20104;-88
2022/09/29 03:21:31;;;;;;;285.33;22.45;;;5.20;99.90;;;;;;5012287;28;20120;-88
2022/09/29 03:23:56;;;;;;;19.35;11.90;;;5.20;99.90;;;;;;5008207;28;20030;-88
2022/09/29 03:26:22;;;;;;;18.73;12.02;;;5.10;99.90;;;;;;5029169;28;20463;-88
2022/09/29 03:28:52;;;;;;;21.42;11.73;;;5.10;99.90;;;;;;5013991;28;20508;-89
2022/09/29 03:31:17;;;;;;;18.48;11.73;;;5.10;99.90;;;;;;5012055;28;20030;-88
2022/09/29 03:33:43;;;;;;;20.55;13.07;;;5.10;99.90;;;;;;5013166;28;20120;-88
2022/09/29 03:36:10;;;;;;;18.00;11.85;;;5.10;99.90;;;;;;5013936;28;20050;-89
2022/09/29 03:38:36;;;;;;;21.63;12.05;;;5.10;99.90;;;;;;5024015;28;20117;-89
2022/09/29 03:41:03;;;;;;;103.28;12.68;;;5.10;99.90;;;;;;5010977;28;20477;-88
2022/09/29 03:43:28;;;;;;;33.10;11.38;;;5.10;99.90;;;;;;5012972;28;20491;-88
2022/09/29 03:45:55;;;;;;;31.25;11.95;;;5.10;99.90;;;;;;5024920;28;20079;-89
2022/09/29 03:48:22;;;;;;;68.22;12.80;;;5.00;99.90;;;;;;5012030;28;20018;-88
2022/09/29 03:50:49;;;;;;;91.72;13.90;;;5.00;99.90;;;;;;5012888;28;20058;-88
2022/09/29 03:53:15;;;;;;;18.17;10.88;;;5.00;99.90;;;;;;5016912;28;20026;-88
2022/09/29 03:55:45;;;;;;;27.20;11.75;;;4.90;99.90;;;;;;5008072;28;20808;-88
2022/09/29 03:58:11;;;;;;;18.88;12.13;;;4.90;99.90;;;;;;5013599;28;20025;-88
2022/09/29 04:00:36;;;;;;;19.38;11.95;;;4.90;99.90;;;;;;5029011;28;20030;-88
2022/09/29 04:03:02;;;;;;;18.80;13.25;;;4.90;99.90;;;;;;5024382;28;20030;-88
2022/09/29 04:05:28;;;;;;;34.53;12.32;;;5.00;99.90;;;;;;5011952;28;20033;-88
2022/09/29 04:07:54;;;;;;;19.20;13.25;;;4.90;99.90;;;;;;5007345;28;20025;-89
2022/09/29 04:10:19;;;;;;;25.55;14.13;;;4.90;99.90;;;;;;5017438;28;20478;-87
2022/09/29 04:12:45;;;;;;;25.98;14.10;;;4.90;99.90;;;;;;5022385;28;20462;-89
2022/09/29 04:15:10;;;;;;;69.57;14.15;;;4.90;99.90;;;;;;5005009;28;20026;-88
2022/09/29 04:17:36;;;;;;;89.85;15.18;;;5.00;99.90;;;;;;5009450;28;20088;-88
2022/09/29 04:20:01;;;;;;;67.28;15.48;;;4.90;99.90;;;;;;5011942;28;20068;-87
2022/09/29 04:22:27;;;;;;;35.03;13.82;;;4.90;99.90;;;;;;5017402;28;20109;-88
2022/09/29 04:24:52;;;;;;;43.17;14.05;;;4.90;99.90;;;;;;5025327;28;20033;-89
2022/09/29 04:27:18;;;;;;;65.57;15.65;;;4.90;99.90;;;;;;5021060;28;20026;-88
2022/09/29 04:29:44;;;;;;;108.88;19.75;;;4.90;99.90;;;;;;5008123;28;20030;-88
2022/09/29 04:32:09;;;;;;;36.55;14.73;;;4.90;99.90;;;;;;5017498;28;20030;-87
2022/09/29 04:34:35;;;;;;;36.97;14.68;;;4.90;99.90;;;;;;5006617;28;20133;-88
2022/09/29 04:37:01;;;;;;;73.50;15.57;;;4.90;99.90;;;;;;5006898;28;20026;-89
2022/09/29 04:39:27;;;;;;;91.38;16.17;;;4.80;99.90;;;;;;5006050;28;20478;-88
2022/09/29 04:41:52;;;;;;;44.90;15.77;;;4.80;99.90;;;;;;5007327;28;20040;-88
2022/09/29 04:44:23;;;;;;;39.22;15.45;;;4.80;99.90;;;;;;5003061;28;21045;-88
2022/09/29 04:46:50;;;;;;;37.95;16.05;;;4.80;99.90;;;;;;5014535;28;20041;-88
2022/09/29 04:49:17;;;;;;;106.60;17.52;;;4.80;99.90;;;;;;5011741;28;20030;-87
2022/09/29 04:51:42;;;;;;;64.82;16.60;;;4.80;99.90;;;;;;5011968;28;20057;-88
2022/09/29 04:54:08;;;;;;;54.53;17.02;;;4.80;99.90;;;;;;5009772;28;20065;-88
2022/09/29 04:56:33;;;;;;;35.70;16.02;;;4.80;99.90;;;;;;5008747;28;20563;-89
2022/09/29 04:58:59;;;;;;;92.03;19.05;;;4.80;99.90;;;;;;5006020;28;20394;-89
2022/09/29 05:01:25;;;;;;;40.35;15.93;;;4.80;99.90;;;;;;5005435;28;20042;-88
2022/09/29 05:03:50;;;;;;;39.45;17.17;;;4.80;99.90;;;;;;5022034;28;20026;-88
2022/09/29 05:06:16;;;;;;;37.05;17.88;;;4.70;99.90;;;;;;5001994;28;20031;-89
2022/09/29 05:08:42;;;;;;;27.48;16.75;;;4.70;99.90;;;;;;5025633;28;20021;-88
2022/09/29 05:11:09;;;;;;;39.45;17.45;;;4.80;99.90;;;;;;5011805;28;20037;-89
2022/09/29 05:13:35;;;;;;;39.75;17.58;;;4.70;99.90;;;;;;5011549;28;20054;-88
2022/09/29 05:16:02;;;;;;;35.65;17.52;;;4.70;99.90;;;;;;5011236;28;20430;-89
2022/09/29 05:18:28;;;;;;;25.83;17.45;;;4.70;99.90;;;;;;5012878;28;20014;-88
2022/09/29 05:20:54;;;;;;;33.15;17.98;;;4.70;99.90;;;;;;5013018;28;20405;-89
2022/09/29 05:23:19;;;;;;;33.63;16.48;;;4.70;99.90;;;;;;5010354;28;20033;-89
2022/09/29 05:25:45;;;;;;;29.75;16.75;;;4.70;99.90;;;;;;5009747;28;20072;-89
2022/09/29 05:28:13;;;;;;;26.15;15.95;;;4.70;99.90;;;;;;5012308;28;20474;-89
2022/09/29 05:30:39;;;;;;;26.48;16.65;;;4.60;99.90;;;;;;5011756;28;20033;-89
2022/09/29 05:33:05;;;;;;;28.85;17.00;;;4.60;99.90;;;;;;5012098;28;20109;-88
2022/09/29 05:35:30;;;;;;;30.30;17.00;;;4.60;99.90;;;;;;5009173;28;20026;-89
2022/09/29 05:37:56;;;;;;;29.58;16.63;;;4.50;99.90;;;;;;5011463;28;20320;-88
2022/09/29 05:40:24;;;;;;;31.42;16.58;;;4.50;99.90;;;;;;5004186;28;20034;-88
2022/09/29 05:42:51;;;;;;;55.13;17.50;;;4.50;99.90;;;;;;5006092;28;20545;-89
2022/09/29 05:45:17;;;;;;;108.78;21.40;;;4.50;99.90;;;;;;5005002;28;20489;-89
2022/09/29 05:47:44;;;;;;;70.95;18.10;;;4.50;99.90;;;;;;5004275;28;20022;-89
2022/09/29 05:50:10;;;;;;;54.25;17.98;;;4.50;99.90;;;;;;5005635;28;20120;-89
2022/09/29 05:52:37;;;;;;;47.75;17.10;;;4.50;99.90;;;;;;5011302;28;20037;-88
2022/09/29 05:55:03;;;;;;;46.53;17.10;;;4.50;99.90;;;;;;5007623;28;20034;-88
2022/09/29 05:57:29;;;;;;;24.48;15.90;;;4.50;99.90;;;;;;5010787;28;20516;-90
2022/09/29 05:59:54;;;;;;;58.13;19.65;;;4.50;99.90;;;;;;5017496;28;20037;-90
2022/09/29 06:02:21;;;;;;;99.28;20.45;;;4.50;99.90;;;;;;5012191;28;20030;-90
2022/09/29 06:04:46;;;;;;;63.88;18.60;;;4.60;99.90;;;;;;5015378;28;20032;-90
2022/09/29 06:07:12;;;;;;;66.10;19.20;;;4.60;99.90;;;;;;5011767;28;20104;-89
2022/09/29 06:09:37;;;;;;;47.90;18.05;;;4.60;99.90;;;;;;5012097;28;20077;-89
2022/09/29 06:12:03;;;;;;;85.38;20.38;;;4.70;99.90;;;;;;5011926;28;20084;-90
2022/09/29 06:14:29;;;;;;;72.43;19.60;;;4.70;99.90;;;;;;5009815;28;20498;-89
2022/09/29 06:16:54;;;;;;;59.67;20.10;;;4.70;99.90;;;;;;5011954;28;20030;-88
2022/09/29 06:19:20;;;;;;;55.30;19.35;;;4.80;99.90;;;;;;5012767;28;20018;-89
2022/09/29 06:21:46;;;;;;;116.80;22.65;;;4.90;99.90;;;;;;5015595;28;20069;-89
2022/09/29 06:24:11;;;;;;;54.03;20.90;;;4.90;99.90;;;;;;5008335;28;20026;-89
2022/09/29 06:26:37;;;;;;;47.83;20.45;;;5.00;99.90;;;;;;5015689;28;20479;-89
2022/09/29 06:29:03;;;;;;;85.43;22.35;;;5.00;99.90;;;;;;5015361;28;20022;-89
2022/09/29 06:31:30;;;;;;;73.93;22.55;;;5.10;99.90;;;;;;5014740;28;20032;-89
2022/09/29 06:33:57;;;;;;;98.35;23.92;;;5.10;99.90;;;;;;5021905;28;20047;-89
2022/09/29 06:39:18;;;;;;;45.83;20.60;;;5.20;99.90;;;;;;4996724;28;20033;-89
2022/09/29 06:41:50;;;;;;;53.60;22.60;;;5.20;99.90;;;;;;4995515;28;20042;-88
2022/09/29 06:44:16;;;;;;;;;;;5.20;99.90;;;;;;5015010;28;20029;-89
2022/09/29 06:46:42;;;;;;;50.88;21.75;;;5.30;99.90;;;;;;5015091;28;19906;-90
2022/09/29 06:49:07;;;;;;;44.65;23.25;;;5.30;99.90;;;;;;5014693;28;20033;-89
2022/09/29 06:51:35;;;;;;;51.42;23.35;;;5.30;99.90;;;;;;5031334;28;20026;-89
2022/09/29 06:54:00;;;;;;;44.25;22.98;;;5.40;99.90;;;;;;5014473;28;20026;-89
2022/09/29 06:56:26;;;;;;;45.33;24.60;;;5.50;99.90;;;;;;5014749;28;20076;-91
2022/09/29 06:58:51;;;;;;;41.90;23.77;;;5.60;99.90;;;;;;5014966;28;20045;-91
2022/09/29 07:01:17;;;;;;;45.10;25.17;;;5.60;99.90;;;;;;5013459;28;20034;-90
2022/09/29 07:03:43;;;;;;;43.60;24.67;;;5.70;99.90;;;;;;5014447;28;20030;-90
2022/09/29 07:06:10;;;;;;;43.28;24.77;;;5.80;99.90;;;;;;5014768;28;20084;-90
2022/09/29 07:08:37;;;;;;;40.63;25.52;;;5.80;99.90;;;;;;5014771;28;20022;-89
2022/09/29 07:11:04;;;;;;;45.08;25.33;;;5.90;99.90;;;;;;5015774;28;20017;-90
2022/09/29 07:13:30;;;;;;;43.00;26.55;;;6.00;99.90;;;;;;5013402;28;20030;-90
2022/09/29 07:16:01;;;;;;;46.25;26.30;;;6.10;99.90;;;;;;5014954;28;20026;-89
2022/09/29 07:18:27;;;;;;;47.22;29.27;;;6.20;99.90;;;;;;5013748;28;20084;-90
2022/09/29 07:20:55;;;;;;;47.72;28.58;;;6.20;99.90;;;;;;5014485;28;20116;-90
2022/09/29 07:23:20;;;;;;;48.00;29.88;;;6.30;99.90;;;;;;5015419;28;20028;-90
2022/09/29 07:25:46;;;;;;;48.30;29.70;;;6.40;99.90;;;;;;5014710;28;20109;-90
2022/09/29 07:28:11;;;;;;;47.92;30.05;;;6.50;99.90;;;;;;5014519;28;20032;-89
2022/09/29 07:30:38;;;;;;;49.50;30.35;;;6.60;99.90;;;;;;5012800;28;20040;-91
2022/09/29 07:33:03;;;;;;;46.50;31.67;;;6.70;99.90;;;;;;5015402;28;20041;-89
2022/09/29 07:35:29;;;;;;;45.17;30.80;;;6.80;99.90;;;;;;5015401;28;20042;-90
2022/09/29 07:37:55;;;;;;;48.10;31.17;;;6.90;99.90;;;;;;5014423;28;20482;-90
2022/09/29 07:40:21;;;;;;;46.25;30.40;;;7.00;99.90;;;;;;5014443;28;20083;-90
2022/09/29 07:42:48;;;;;;;50.03;30.83;;;7.10;99.90;;;;;;5014903;28;20041;-90
2022/09/29 07:45:16;;;;;;;48.22;30.95;;;7.20;99.90;;;;;;5013828;28;20029;-90
2022/09/29 07:47:42;;;;;;;47.47;30.85;;;7.30;99.90;;;;;;5014019;28;20030;-90
2022/09/29 07:50:08;;;;;;;49.33;32.70;;;7.40;99.90;;;;;;5015225;28;20075;-90
2022/09/29 07:52:34;;;;;;;50.75;32.47;;;7.60;99.90;;;;;;5013793;28;20406;-91
2022/09/29 07:55:00;;;;;;;49.55;33.55;;;7.60;99.90;;;;;;5014523;28;20041;-90
2022/09/29 07:57:25;;;;;;;50.08;31.48;;;7.80;99.90;;;;;;5012594;28;20034;-91
2022/09/29 07:59:53;;;;;;;47.03;32.97;;;7.90;99.90;;;;;;5014967;28;20030;-89
2022/09/29 08:02:19;;;;;;;51.05;31.73;;;8.10;99.90;;;;;;5015558;28;20490;-90
2022/09/29 08:04:44;;;;;;;49.30;31.30;;;8.20;99.90;;;;;;5015465;28;20071;-91
2022/09/29 08:07:10;;;;;;;44.53;29.83;;;8.30;99.90;;;;;;5004869;28;20030;-90
2022/09/29 08:09:36;;;;;;;43.90;28.92;;;8.30;99.90;;;;;;5002920;28;20545;-89
2022/09/29 08:12:01;;;;;;;42.45;29.73;;;8.40;99.90;;;;;;5030276;28;20052;-89
2022/09/29 08:14:27;;;;;;;40.88;28.67;;;8.50;99.90;;;;;;5013613;28;20036;-90
2022/09/29 08:16:53;;;;;;;42.70;29.75;;;8.60;99.90;;;;;;5012621;28;20144;-89
2022/09/29 08:19:18;;;;;;;41.55;29.15;;;8.70;99.90;;;;;;5013251;28;20455;-89
2022/09/29 08:21:45;;;;;;;39.55;27.30;;;8.80;99.90;;;;;;5014618;28;20042;-90
2022/09/29 08:24:12;;;;;;;38.83;28.95;;;8.90;99.90;;;;;;5013268;28;20121;-89
2022/09/29 08:26:39;;;;;;;39.78;26.67;;;9.00;99.90;;;;;;5013383;28;20382;-89
2022/09/29 08:29:05;;;;;;;41.28;26.42;;;9.10;99.90;;;;;;5029403;28;20033;-90
2022/09/29 08:31:32;;;;;;;35.33;26.10;;;9.20;99.90;;;;;;5014154;28;20022;-90
2022/09/29 08:33:58;;;;;;;36.92;27.08;;;9.30;99.90;;;;;;5014629;28;20406;-89
2022/09/29 08:36:24;;;;;;;38.58;26.67;;;9.40;99.90;;;;;;5013675;28;20034;-89
2022/09/29 08:38:51;;;;;;;34.92;26.58;;;9.50;99.90;;;;;;5013504;28;20422;-88
2022/09/29 08:41:50;;;;;;;37.33;25.60;;;9.50;99.90;;;;;;5012039;28;20038;-89
2022/09/29 08:44:43;;;;;;;34.13;25.67;;;9.60;99.90;;;;;;5013259;28;20083;-88
2022/09/29 08:47:28;;;;;;;36.80;26.25;;;9.80;99.90;;;;;;5012107;28;20025;-89
2022/09/29 08:49:58;;;;;;;33.17;25.55;;;9.80;99.90;;;;;;5014121;28;20034;-89
2022/09/29 08:52:39;;;;;;;36.75;26.05;;;10.00;99.90;;;;;;5012633;28;20054;-88
2022/09/29 08:55:33;;;;;;;32.72;24.25;;;10.10;99.90;;;;;;5012714;28;20402;-88
2022/09/29 08:58:00;;;;;;;32.25;23.58;;;10.20;99.90;;;;;;5024467;28;20030;-88
2022/09/29 09:01:02;;;;;;;34.05;23.85;;;10.30;99.90;;;;;;5028584;28;20034;-88
2022/09/29 09:03:55;;;;;;;31.75;22.83;;;10.40;99.90;;;;;;5008036;28;20498;-88
2022/09/29 09:07:09;;;;;;;28.63;22.30;;;10.50;99.90;;;;;;5012541;28;20064;-88
2022/09/29 09:09:54;;;;;;;28.08;21.05;;;10.60;99.90;;;;;;5006018;28;20060;-87
2022/09/29 09:12:52;;;;;;;29.42;22.38;;;10.70;99.90;;;;;;5012652;28;20029;-88
2022/09/29 09:15:52;;;;;;;26.35;21.67;;;10.80;99.90;;;;;;5027807;28;20048;-87
2022/09/29 09:19:06;;;;;;;27.65;20.65;;;11.00;99.90;;;;;;5028624;28;20026;-88
2022/09/29 09:21:31;;;;;;;;;;;11.10;99.90;;;;;;5023867;28;20080;-87
2022/09/29 09:24:09;;;;;;;29.02;20.38;;;11.10;99.90;;;;;;5013112;28;19944;-88
2022/09/29 09:26:40;;;;;;;30.02;20.80;;;11.30;99.90;;;;;;5013626;28;20028;-88
2022/09/29 09:29:35;;;;;;;25.23;20.40;;;11.40;99.90;;;;;;5011537;28;20049;-88
2022/09/29 09:32:11;;;;;;;22.85;18.13;;;11.50;99.90;;;;;;5012321;28;20038;-88
2022/09/29 09:34:56;;;;;;;25.35;17.45;;;11.50;99.90;;;;;;5011192;28;20050;-88
2022/09/29 09:37:31;;;;;;;21.92;17.27;;;11.60;99.90;;;;;;5008831;28;20026;-88
2022/09/29 09:40:10;;;;;;;24.23;18.02;;;11.70;99.90;;;;;;5009071;28;20118;-88
2022/09/29 09:42:38;;;;;;;20.75;18.10;;;11.70;99.90;;;;;;5009284;28;20030;-88
2022/09/29 09:45:13;;;;;;;19.83;16.33;;;11.80;99.90;;;;;;5000463;28;20121;-87
2022/09/29 09:47:50;;;;;;;18.27;15.57;;;11.80;99.90;;;;;;5012344;28;20105;-88
2022/09/29 09:50:18;;;;;;;17.58;14.27;;;12.00;99.90;;;;;;5011892;28;20022;-88
2022/09/29 09:52:46;;;;;;;18.45;14.40;;;12.00;99.90;;;;;;5012432;28;20103;-88
2022/09/29 09:55:23;;;;;;;19.80;15.65;;;12.10;99.90;;;;;;5015564;28;20049;-88
2022/09/29 09:58:04;;;;;;;16.90;14.43;;;12.10;99.90;;;;;;5014664;28;20084;-88
2022/09/29 10:00:36;;;;;;;17.08;14.10;;;12.10;99.90;;;;;;5015606;28;20052;-88
2022/09/29 10:03:05;;;;;;;19.73;13.82;;;12.20;99.90;;;;;;5017130;28;20092;-88
2022/09/29 10:05:41;;;;;;;19.63;14.32;;;12.20;99.90;;;;;;5015545;28;20030;-88
2022/09/29 10:08:15;;;;;;;18.80;13.85;;;12.40;99.90;;;;;;5016902;28;20032;-88
2022/09/29 10:10:41;;;;;;;19.08;13.45;;;12.40;99.90;;;;;;5015115;28;20026;-87
2022/09/29 10:13:11;;;;;;;18.95;13.35;;;12.50;99.90;;;;;;5016915;28;20061;-88
2022/09/29 10:15:39;;;;;;;19.05;13.73;;;12.40;99.90;;;;;;5016888;28;20026;-88
2022/09/29 10:18:31;;;;;;;18.02;14.25;;;12.40;99.90;;;;;;5015492;28;20116;-89
2022/09/29 10:20:56;;;;;;;16.50;13.52;;;12.30;99.90;;;;;;5013590;28;20494;-88
2022/09/29 10:23:32;;;;;;;16.30;14.35;;;12.30;99.90;;;;;;5014136;28;20037;-88
2022/09/29 10:26:13;;;;;;;18.13;14.55;;;12.40;99.90;;;;;;5015684;28;20088;-89
2022/09/29 10:28:49;;;;;;;17.85;14.90;;;12.50;99.90;;;;;;5016791;28;20080;-88
2022/09/29 10:31:30;;;;;;;18.40;14.50;;;12.60;99.90;;;;;;5014256;28;20037;-88
2022/09/29 10:34:15;;;;;;;15.88;13.05;;;12.70;99.90;;;;;;5015068;28;20406;-87
2022/09/29 10:37:20;;;;;;;16.90;14.65;;;12.90;99.90;;;;;;5032417;28;20025;-88
2022/09/29 10:39:47;;;;;;;17.50;13.40;;;12.90;99.90;;;;;;5002190;28;20038;-88
2022/09/29 10:42:47;;;;;;;19.45;14.32;;;13.10;99.90;;;;;;5015641;28;20068;-88
2022/09/29 10:45:21;;;;;;;19.30;13.52;;;13.20;99.90;;;;;;4973671;28;20034;-88
2022/09/29 10:47:57;;;;;;;16.55;13.80;;;13.20;99.90;;;;;;5014871;28;20394;-88
2022/09/29 10:50:29;;;;;;;16.73;13.85;;;13.20;99.90;;;;;;5016091;28;20034;-88
2022/09/29 10:52:57;;;;;;;17.42;13.75;;;13.30;99.90;;;;;;5015475;28;20022;-89
2022/09/29 10:55:34;;;;;;;18.48;14.75;;;13.40;99.90;;;;;;5015576;28;20034;-88
2022/09/29 10:58:15;;;;;;;17.08;13.82;;;13.50;99.90;;;;;;5014603;28;20060;-88
2022/09/29 11:00:48;;;;;;;17.48;14.13;;;13.60;99.90;;;;;;5014907;28;20040;-89
2022/09/29 11:03:26;;;;;;;16.55;13.82;;;13.70;99.90;;;;;;5014785;28;20454;-90
2022/09/29 11:06:02;;;;;;;18.40;13.55;;;13.90;99.90;;;;;;5014067;28;20029;-89
2022/09/29 11:08:27;;;;;;;16.10;13.27;;;14.00;99.90;;;;;;5013643;28;20054;-89
2022/09/29 11:11:27;;;;;;;15.80;13.13;;;14.10;99.90;;;;;;5014555;28;20049;-88
2022/09/29 11:13:53;;;;;;;16.05;13.50;;;14.20;99.90;;;;;;5014856;28;20026;-88
2022/09/29 11:16:35;;;;;;;14.70;13.10;;;14.20;99.90;;;;;;5014364;28;20021;-89
2022/09/29 11:19:19;;;;;;;14.57;12.80;;;14.30;99.90;;;;;;5013578;28;20054;-89
2022/09/29 11:22:09;;;;;;;15.50;13.48;;;14.30;99.90;;;;;;5001415;28;20096;-88
2022/09/29 11:25:13;;;;;;;17.13;13.07;;;14.40;99.90;;;;;;5014730;28;20113;-89
2022/09/29 11:27:50;;;;;;;12.38;10.60;;;14.60;99.90;;;;;;5020784;28;20045;-89
2022/09/29 11:30:20;;;;;;;11.65;10.45;;;14.70;99.90;;;;;;5013907;28;20033;-90
2022/09/29 11:33:20;;;;;;;11.48;10.07;;;14.90;99.90;;;;;;5014445;28;20030;-89
2022/09/29 11:36:07;;;;;;;12.55;10.00;;;15.10;99.90;;;;;;5013883;28;20128;-90
2022/09/29 11:38:44;;;;;;;11.70;9.65;;;15.30;99.90;;;;;;5012241;28;20117;-89
2022/09/29 11:41:50;;;;;;;9.60;8.65;;;15.40;99.90;;;;;;5013684;28;20030;-89
2022/09/29 11:44:40;;;;;;;11.88;8.00;;;15.60;99.90;;;;;;5003454;28;20061;-88
2022/09/29 11:47:21;;;;;;;9.32;8.32;;;15.70;99.90;;;;;;5013413;28;20121;-89
2022/09/29 11:50:05;;;;;;;9.50;7.82;;;15.80;99.90;;;;;;5013863;28;20386;-89
2022/09/29 11:52:41;;;;;;;9.98;8.02;;;15.80;99.90;;;;;;5013837;28;20038;-89
2022/09/29 11:55:26;;;;;;;9.90;7.82;;;15.80;99.90;;;;;;5015379;28;20021;-89
2022/09/29 11:58:13;;;;;;;8.85;7.68;;;15.90;99.90;;;;;;5026765;28;20030;-89
2022/09/29 12:00:41;;;;;;;11.52;7.68;;;16.10;99.90;;;;;;5010799;28;20041;-89
2022/09/29 12:03:15;;;;;;;11.18;7.55;;;16.30;99.90;;;;;;5008443;28;20161;-90
2022/09/29 12:05:48;;;;;;;9.63;7.22;;;16.30;99.90;;;;;;5013844;28;20029;-89
2022/09/29 12:08:52;;;;;;;7.35;6.30;;;16.40;99.90;;;;;;5013160;28;20022;-90
2022/09/29 12:11:43;;;;;;;6.88;5.25;;;16.50;99.90;;;;;;5014053;28;20095;-88
2022/09/29 12:14:23;;;;;;;5.53;4.93;;;16.60;99.90;;;;;;5013081;28;20022;-88
2022/09/29 12:17:00;;;;;;;7.85;5.15;;;16.70;99.90;;;;;;5012730;28;20025;-89
2022/09/29 12:19:32;;;;;;;6.20;4.50;;;16.70;99.90;;;;;;5012364;28;20022;-89
2022/09/29 12:22:01;;;;;;;5.13;4.05;;;16.80;99.90;;;;;;5013638;28;20041;-89
2022/09/29 12:24:45;;;;;;;6.55;4.03;;;16.80;99.90;;;;;;5012819;28;20025;-89
2022/09/29 12:27:27;;;;;;;5.95;3.70;;;16.90;99.90;;;;;;5010123;28;20045;-89
2022/09/29 12:30:02;;;;;;;5.97;3.83;;;17.00;99.90;;;;;;5013982;28;20108;-89
2022/09/29 12:32:40;;;;;;;4.60;3.70;;;17.00;99.90;;;;;;5013522;28;20079;-88
2022/09/29 12:35:22;;;;;;;5.53;3.20;;;17.00;99.90;;;;;;5012361;28;20137;-89
2022/09/29 12:38:18;;;;;;;4.38;3.97;;;17.00;99.90;;;;;;5013619;28;20029;-89
2022/09/29 12:40:57;;;;;;;5.10;3.60;;;17.00;99.90;;;;;;5011622;28;20661;-90
2022/09/29 12:43:42;;;;;;;5.60;3.90;;;16.90;99.90;;;;;;5009026;28;20018;-88
2022/09/29 12:46:21;;;;;;;5.47;3.83;;;16.70;99.90;;;;;;5003974;28;20026;-88
2022/09/29 12:49:17;;;;;;;4.43;3.45;;;16.40;99.90;;;;;;5013469;28;20030;-89
2022/09/29 12:51:51;;;;;;;4.47;3.55;;;16.20;99.90;;;;;;5009717;28;20076;-89
2022/09/29 12:54:28;;;;;;;4.03;3.53;;;15.90;99.90;;;;;;5013121;28;20470;-89
2022/09/29 12:56:59;;;;;;;4.38;3.17;;;15.80;99.90;;;;;;5029001;28;20480;-89
2022/09/29 12:59:51;;;;;;;4.82;3.17;;;15.60;99.90;;;;;;5011984;28;20428;-88
2022/09/29 13:02:38;;;;;;;6.03;3.60;;;15.50;99.90;;;;;;5011884;28;20405;-88
2022/09/29 13:05:32;;;;;;;6.43;3.50;;;15.30;99.90;;;;;;5027694;28;20229;-89
2022/09/29 13:08:26;;;;;;;5.75;3.33;;;15.30;99.90;;;;;;5013491;28;20076;-89
2022/09/29 13:11:10;;;;;;;5.68;3.90;;;15.30;99.90;;;;;;5012178;28;20508;-88